sensor_id;sensor_type;location;lat;lon;timestamp;pressure;altitude;pressure_sealevel;temperature;humidity
75219;BME280;63801;49.414;19.474;2023-03-01T00:01:02;94710.81;;;-4.48;67.26
75219;BME280;63801;49.414;19.474;2023-03-01T00:03:03;94703.41;;;-4.51;67.39
75219;BME280;63801;49.414;19.474;2023-03-01T00:05:04;94705.22;;;-4.52;67.15
75219;BME280;63801;49.414;19.474;2023-03-01T00:07:05;94697.78;;;-4.55;67.29
75219;BME280;63801;49.414;19.474;2023-03-01T00:09:05;94691.28;;;-4.64;67.42
75219;BME280;63801;49.414;19.474;2023-03-01T00:11:13;94700.09;;;-4.59;67.24
75219;BME280;63801;49.414;19.474;2023-03-01T00:13:14;94676.81;;;-4.78;67.31
75219;BME280;63801;49.414;19.474;2023-03-01T00:15:14;94699.16;;;-4.64;67.74
75219;BME280;63801;49.414;19.474;2023-03-01T00:17:14;94677.25;;;-4.81;67.45
75219;BME280;63801;49.414;19.474;2023-03-01T00:19:17;94701.25;;;-4.66;67.70
75219;BME280;63801;49.414;19.474;2023-03-01T00:21:19;94691.41;;;-4.71;67.69
75219;BME280;63801;49.414;19.474;2023-03-01T00:23:21;94702.75;;;-4.70;67.69
75219;BME280;63801;49.414;19.474;2023-03-01T00:25:21;94703.97;;;-4.73;67.80
75219;BME280;63801;49.414;19.474;2023-03-01T00:27:21;94692.22;;;-4.82;67.78
75219;BME280;63801;49.414;19.474;2023-03-01T00:29:23;94710.84;;;-4.72;68.23
75219;BME280;63801;49.414;19.474;2023-03-01T00:31:26;94690.06;;;-4.85;68.01
75219;BME280;63801;49.414;19.474;2023-03-01T00:33:27;94700.00;;;-4.75;68.00
75219;BME280;63801;49.414;19.474;2023-03-01T00:35:27;94707.31;;;-4.77;68.07
75219;BME280;63801;49.414;19.474;2023-03-01T00:37:28;94698.59;;;-4.78;68.20
75219;BME280;63801;49.414;19.474;2023-03-01T00:39:28;94698.84;;;-4.79;68.13
75219;BME280;63801;49.414;19.474;2023-03-01T00:41:28;94698.28;;;-4.81;68.11
75219;BME280;63801;49.414;19.474;2023-03-01T00:43:29;94697.72;;;-4.83;67.98
75219;BME280;63801;49.414;19.474;2023-03-01T00:45:29;94693.81;;;-4.81;68.02
75219;BME280;63801;49.414;19.474;2023-03-01T00:47:31;94694.06;;;-4.82;68.14
75219;BME280;63801;49.414;19.474;2023-03-01T00:49:31;94671.09;;;-4.99;68.11
75219;BME280;63801;49.414;19.474;2023-03-01T00:51:32;94684.00;;;-4.85;67.79
75219;BME280;63801;49.414;19.474;2023-03-01T00:53:33;94686.41;;;-4.84;68.58
75219;BME280;63801;49.414;19.474;2023-03-01T00:55:33;94683.19;;;-4.86;68.27
75219;BME280;63801;49.414;19.474;2023-03-01T00:57:33;94683.06;;;-4.91;68.21
75219;BME280;63801;49.414;19.474;2023-03-01T00:59:34;94683.31;;;-4.92;68.29
75219;BME280;63801;49.414;19.474;2023-03-01T01:01:35;94684.94;;;-4.91;68.28
75219;BME280;63801;49.414;19.474;2023-03-01T01:03:35;94665.38;;;-5.07;68.25
75219;BME280;63801;49.414;19.474;2023-03-01T01:05:35;94677.84;;;-5.03;68.45
75219;BME280;63801;49.414;19.474;2023-03-01T01:07:36;94692.22;;;-4.93;68.15
75219;BME280;63801;49.414;19.474;2023-03-01T01:09:36;94692.44;;;-4.95;68.40
75219;BME280;63801;49.414;19.474;2023-03-01T01:11:37;94694.41;;;-5.02;68.46
75219;BME280;63801;49.414;19.474;2023-03-01T01:13:39;94702.63;;;-4.99;68.48
75219;BME280;63801;49.414;19.474;2023-03-01T01:15:40;94689.72;;;-5.12;68.33
75219;BME280;63801;49.414;19.474;2023-03-01T01:17:40;94700.94;;;-5.05;68.32
75219;BME280;63801;49.414;19.474;2023-03-01T01:19:41;94699.31;;;-5.06;68.58
75219;BME280;63801;49.414;19.474;2023-03-01T01:21:41;94692.34;;;-5.12;68.54
75219;BME280;63801;49.414;19.474;2023-03-01T01:23:44;94699.75;;;-5.09;68.53
75219;BME280;63801;49.414;19.474;2023-03-01T01:25:44;94698.19;;;-5.10;68.84
75219;BME280;63801;49.414;19.474;2023-03-01T01:27:45;94701.84;;;-5.11;69.04
75219;BME280;63801;49.414;19.474;2023-03-01T01:29:45;94702.28;;;-5.14;69.21
75219;BME280;63801;49.414;19.474;2023-03-01T01:31:45;94702.19;;;-5.19;69.23
75219;BME280;63801;49.414;19.474;2023-03-01T01:33:46;94682.41;;;-5.33;69.00
75219;BME280;63801;49.414;19.474;2023-03-01T01:35:47;94702.06;;;-5.24;68.85
75219;BME280;63801;49.414;19.474;2023-03-01T01:37:47;94697.25;;;-5.27;69.13
75219;BME280;63801;49.414;19.474;2023-03-01T01:39:47;94692.00;;;-5.27;69.14
75219;BME280;63801;49.414;19.474;2023-03-01T01:41:48;94683.06;;;-5.26;69.07
75219;BME280;63801;49.414;19.474;2023-03-01T01:44:20;94691.53;;;-5.24;69.82
75219;BME280;63801;49.414;19.474;2023-03-01T01:46:32;94681.94;;;-5.30;70.16
75219;BME280;63801;49.414;19.474;2023-03-01T01:48:41;94662.84;;;-5.49;69.94
75219;BME280;63801;49.414;19.474;2023-03-01T01:50:43;94679.75;;;-5.45;69.87
75219;BME280;63801;49.414;19.474;2023-03-01T01:52:45;94677.22;;;-5.51;69.52
75219;BME280;63801;49.414;19.474;2023-03-01T01:55:04;94643.63;;;-5.72;69.58
75219;BME280;63801;49.414;19.474;2023-03-01T01:57:13;94665.44;;;-5.60;69.34
75219;BME280;63801;49.414;19.474;2023-03-01T01:59:15;94669.09;;;-5.61;69.53
75219;BME280;63801;49.414;19.474;2023-03-01T02:01:15;94677.22;;;-5.63;69.16
75219;BME280;63801;49.414;19.474;2023-03-01T02:03:24;94663.84;;;-5.73;69.53
75219;BME280;63801;49.414;19.474;2023-03-01T02:07:48;94684.72;;;-5.66;69.51
75219;BME280;63801;49.414;19.474;2023-03-01T02:09:50;94683.94;;;-5.67;69.43
75219;BME280;63801;49.414;19.474;2023-03-01T02:11:53;94691.81;;;-5.67;69.30
75219;BME280;63801;49.414;19.474;2023-03-01T02:13:54;94688.94;;;-5.65;69.62
75219;BME280;63801;49.414;19.474;2023-03-01T02:15:54;94701.06;;;-5.64;69.65
75219;BME280;63801;49.414;19.474;2023-03-01T02:17:54;94696.41;;;-5.62;69.79
75219;BME280;63801;49.414;19.474;2023-03-01T02:22:10;94688.16;;;-5.66;69.82
75219;BME280;63801;49.414;19.474;2023-03-01T02:26:53;94693.19;;;-5.53;70.05
75219;BME280;63801;49.414;19.474;2023-03-01T02:28:55;94694.00;;;-5.52;70.01
75219;BME280;63801;49.414;19.474;2023-03-01T02:30:55;94680.41;;;-5.61;69.83
75219;BME280;63801;49.414;19.474;2023-03-01T02:33:14;94689.56;;;-5.52;69.90
75219;BME280;63801;49.414;19.474;2023-03-01T02:35:16;94695.63;;;-5.51;69.98
75219;BME280;63801;49.414;19.474;2023-03-01T02:37:17;94700.88;;;-5.51;69.58
75219;BME280;63801;49.414;19.474;2023-03-01T02:39:36;94690.34;;;-5.51;69.90
75219;BME280;63801;49.414;19.474;2023-03-01T02:41:45;94690.34;;;-5.51;69.84
75219;BME280;63801;49.414;19.474;2023-03-01T02:43:47;94691.38;;;-5.52;69.94
75219;BME280;63801;49.414;19.474;2023-03-01T02:45:51;94689.56;;;-5.52;70.00
75219;BME280;63801;49.414;19.474;2023-03-01T02:47:56;94683.50;;;-5.52;70.19
75219;BME280;63801;49.414;19.474;2023-03-01T02:49:57;94680.31;;;-5.54;70.01
75219;BME280;63801;49.414;19.474;2023-03-01T02:54:40;94680.31;;;-5.54;69.96
75219;BME280;63801;49.414;19.474;2023-03-01T02:56:44;94682.94;;;-5.54;70.22
75219;BME280;63801;49.414;19.474;2023-03-01T02:58:45;94680.66;;;-5.62;69.98
75219;BME280;63801;49.414;19.474;2023-03-01T03:00:48;94680.72;;;-5.69;69.91
75219;BME280;63801;49.414;19.474;2023-03-01T03:02:51;94686.19;;;-5.70;69.93
75219;BME280;63801;49.414;19.474;2023-03-01T03:04:52;94663.25;;;-5.86;70.09
75219;BME280;63801;49.414;19.474;2023-03-01T03:06:52;94668.25;;;-5.85;70.06
75219;BME280;63801;49.414;19.474;2023-03-01T03:08:52;94674.78;;;-5.87;70.16
75219;BME280;63801;49.414;19.474;2023-03-01T03:10:53;94674.88;;;-5.94;70.28
75219;BME280;63801;49.414;19.474;2023-03-01T03:12:55;94671.09;;;-5.98;70.79
75219;BME280;63801;49.414;19.474;2023-03-01T03:14:56;94673.34;;;-6.02;71.08
75219;BME280;63801;49.414;19.474;2023-03-01T03:16:56;94672.19;;;-6.06;70.89
75219;BME280;63801;49.414;19.474;2023-03-01T03:18:56;94668.44;;;-6.10;70.98
75219;BME280;63801;49.414;19.474;2023-03-01T03:21:08;94663.41;;;-6.11;71.69
75219;BME280;63801;49.414;19.474;2023-03-01T03:23:12;94659.75;;;-6.10;71.93
75219;BME280;63801;49.414;19.474;2023-03-01T03:25:13;94653.72;;;-6.11;71.87
75219;BME280;63801;49.414;19.474;2023-03-01T03:27:13;94644.91;;;-6.16;71.88
75219;BME280;63801;49.414;19.474;2023-03-01T03:29:13;94643.25;;;-6.11;71.24
75219;BME280;63801;49.414;19.474;2023-03-01T03:31:14;94627.50;;;-6.11;71.50
75219;BME280;63801;49.414;19.474;2023-03-01T03:33:14;94630.69;;;-6.09;71.36
75219;BME280;63801;49.414;19.474;2023-03-01T03:35:14;94640.72;;;-6.06;71.55
75219;BME280;63801;49.414;19.474;2023-03-01T03:37:15;94638.69;;;-6.04;71.32
75219;BME280;63801;49.414;19.474;2023-03-01T03:39:33;94626.38;;;-6.03;71.76
75219;BME280;63801;49.414;19.474;2023-03-01T03:41:34;94625.78;;;-6.05;72.44
75219;BME280;63801;49.414;19.474;2023-03-01T03:43:36;94631.97;;;-6.00;71.94
75219;BME280;63801;49.414;19.474;2023-03-01T03:45:37;94632.97;;;-6.01;72.25
75219;BME280;63801;49.414;19.474;2023-03-01T03:47:38;94632.97;;;-6.01;71.71
75219;BME280;63801;49.414;19.474;2023-03-01T03:49:38;94636.19;;;-5.99;71.50
75219;BME280;63801;49.414;19.474;2023-03-01T03:51:38;94636.19;;;-5.99;71.35
75219;BME280;63801;49.414;19.474;2023-03-01T03:53:39;94637.22;;;-6.00;72.57
75219;BME280;63801;49.414;19.474;2023-03-01T03:55:39;94634.59;;;-6.00;72.00
75219;BME280;63801;49.414;19.474;2023-03-01T03:57:41;94633.44;;;-6.04;72.92
75219;BME280;63801;49.414;19.474;2023-03-01T03:59:41;94638.09;;;-6.06;72.07
75219;BME280;63801;49.414;19.474;2023-03-01T04:01:41;94638.56;;;-6.09;71.77
75219;BME280;63801;49.414;19.474;2023-03-01T04:03:41;94631.56;;;-6.15;72.00
75219;BME280;63801;49.414;19.474;2023-03-01T04:05:46;94645.97;;;-6.06;71.72
75219;BME280;63801;49.414;19.474;2023-03-01T04:07:47;94644.94;;;-6.05;71.81
75219;BME280;63801;49.414;19.474;2023-03-01T04:09:47;94637.06;;;-6.05;71.61
75219;BME280;63801;49.414;19.474;2023-03-01T04:11:48;94635.03;;;-6.03;71.68
75219;BME280;63801;49.414;19.474;2023-03-01T04:13:49;94642.66;;;-6.01;71.59
75219;BME280;63801;49.414;19.474;2023-03-01T04:15:50;94648.16;;;-6.03;71.82
75219;BME280;63801;49.414;19.474;2023-03-01T04:17:52;94642.91;;;-6.03;71.71
75219;BME280;63801;49.414;19.474;2023-03-01T04:19:52;94643.25;;;-5.99;71.70
75219;BME280;63801;49.414;19.474;2023-03-01T04:21:53;94641.31;;;-6.04;71.64
75219;BME280;63801;49.414;19.474;2023-03-01T04:23:53;94634.59;;;-6.00;71.69
75219;BME280;63801;49.414;19.474;2023-03-01T04:25:55;94639.63;;;-5.98;71.68
75219;BME280;63801;49.414;19.474;2023-03-01T04:27:56;94636.19;;;-5.99;71.63
75219;BME280;63801;49.414;19.474;2023-03-01T04:29:57;94632.56;;;-5.98;71.89
75219;BME280;63801;49.414;19.474;2023-03-01T04:31:57;94635.38;;;-5.99;71.97
75219;BME280;63801;49.414;19.474;2023-03-01T04:33:57;94623.75;;;-6.03;71.71
75219;BME280;63801;49.414;19.474;2023-03-01T04:35:58;94620.84;;;-6.13;71.67
75219;BME280;63801;49.414;19.474;2023-03-01T04:37:58;94615.81;;;-6.15;71.61
75219;BME280;63801;49.414;19.474;2023-03-01T04:39:58;94608.63;;;-6.19;71.56
75219;BME280;63801;49.414;19.474;2023-03-01T04:41:59;94611.03;;;-6.18;71.68
75219;BME280;63801;49.414;19.474;2023-03-01T04:43:59;94619.13;;;-6.19;71.73
75219;BME280;63801;49.414;19.474;2023-03-01T04:46:02;94606.25;;;-6.21;72.08
75219;BME280;63801;49.414;19.474;2023-03-01T04:48:03;94615.03;;;-6.15;72.08
75219;BME280;63801;49.414;19.474;2023-03-01T04:50:04;94620.63;;;-6.12;72.19
75219;BME280;63801;49.414;19.474;2023-03-01T04:52:05;94613.31;;;-6.10;71.99
75219;BME280;63801;49.414;19.474;2023-03-01T04:54:05;94611.97;;;-6.01;71.92
75219;BME280;63801;49.414;19.474;2023-03-01T04:56:09;94614.75;;;-5.96;71.88
75219;BME280;63801;49.414;19.474;2023-03-01T04:58:09;94614.06;;;-5.91;72.28
75219;BME280;63801;49.414;19.474;2023-03-01T05:00:12;94610.63;;;-5.92;72.45
75219;BME280;63801;49.414;19.474;2023-03-01T05:02:21;94580.47;;;-6.12;72.41
75219;BME280;63801;49.414;19.474;2023-03-01T05:04:23;94599.31;;;-6.04;72.21
75219;BME280;63801;49.414;19.474;2023-03-01T05:06:23;94594.41;;;-6.12;72.70
75219;BME280;63801;49.414;19.474;2023-03-01T05:08:23;94609.91;;;-6.10;72.82
75219;BME280;63801;49.414;19.474;2023-03-01T05:10:25;94578.84;;;-6.25;72.69
75219;BME280;63801;49.414;19.474;2023-03-01T05:12:29;94605.69;;;-6.11;72.78
75219;BME280;63801;49.414;19.474;2023-03-01T05:14:29;94611.97;;;-6.12;72.53
75219;BME280;63801;49.414;19.474;2023-03-01T05:16:29;94610.16;;;-6.12;72.46
75219;BME280;63801;49.414;19.474;2023-03-01T05:18:32;94607.72;;;-6.13;72.16
75219;BME280;63801;49.414;19.474;2023-03-01T05:20:33;94605.69;;;-6.11;72.20
75219;BME280;63801;49.414;19.474;2023-03-01T05:22:36;94610.28;;;-6.07;72.22
75219;BME280;63801;49.414;19.474;2023-03-01T05:24:37;94607.19;;;-6.04;72.14
75219;BME280;63801;49.414;19.474;2023-03-01T05:26:38;94609.34;;;-6.01;72.28
75219;BME280;63801;49.414;19.474;2023-03-01T05:28:40;94620.78;;;-5.95;72.43
75219;BME280;63801;49.414;19.474;2023-03-01T05:30:40;94633.25;;;-5.91;72.49
75219;BME280;63801;49.414;19.474;2023-03-01T05:32:49;94633.25;;;-5.91;72.43
75219;BME280;63801;49.414;19.474;2023-03-01T05:34:55;94640.41;;;-5.86;72.45
75219;BME280;63801;49.414;19.474;2023-03-01T05:36:56;94634.72;;;-5.95;72.47
75219;BME280;63801;49.414;19.474;2023-03-01T05:38:56;94628.44;;;-5.94;73.11
75219;BME280;63801;49.414;19.474;2023-03-01T05:40:56;94629.25;;;-5.93;72.51
75219;BME280;63801;49.414;19.474;2023-03-01T05:42:57;94631.84;;;-5.81;72.89
75219;BME280;63801;49.414;19.474;2023-03-01T05:44:57;94619.00;;;-5.71;73.27
75219;BME280;63801;49.414;19.474;2023-03-01T05:46:57;94634.44;;;-5.40;73.67
75219;BME280;63801;49.414;19.474;2023-03-01T05:48:58;94634.06;;;-5.09;73.51
75219;BME280;63801;49.414;19.474;2023-03-01T05:50:59;94615.31;;;-4.89;73.37
75219;BME280;63801;49.414;19.474;2023-03-01T05:55:11;94635.09;;;-4.18;73.00
75219;BME280;63801;49.414;19.474;2023-03-01T05:57:11;94633.81;;;-3.87;72.63
75219;BME280;63801;49.414;19.474;2023-03-01T05:59:11;94618.91;;;-3.65;71.86
75219;BME280;63801;49.414;19.474;2023-03-01T06:01:12;94640.06;;;-3.27;71.42
75219;BME280;63801;49.414;19.474;2023-03-01T06:03:15;94628.41;;;-2.97;71.22
75219;BME280;63801;49.414;19.474;2023-03-01T06:05:16;94636.44;;;-2.65;70.71
75219;BME280;63801;49.414;19.474;2023-03-01T06:07:16;94632.97;;;-2.28;70.89
75219;BME280;63801;49.414;19.474;2023-03-01T06:09:16;94632.41;;;-1.81;70.91
75219;BME280;63801;49.414;19.474;2023-03-01T06:11:17;94645.22;;;-1.36;70.42
75219;BME280;63801;49.414;19.474;2023-03-01T06:13:17;94648.66;;;-1.04;69.81
75219;BME280;63801;49.414;19.474;2023-03-01T06:15:17;94644.25;;;-0.93;68.80
75219;BME280;63801;49.414;19.474;2023-03-01T06:17:18;94644.44;;;-0.63;68.85
75219;BME280;63801;49.414;19.474;2023-03-01T06:19:18;94654.91;;;-0.31;68.33
75219;BME280;63801;49.414;19.474;2023-03-01T06:21:18;94659.56;;;0.04;68.31
75219;BME280;63801;49.414;19.474;2023-03-01T06:23:19;94664.38;;;0.27;67.88
75219;BME280;63801;49.414;19.474;2023-03-01T06:25:22;94666.53;;;0.30;67.13
75219;BME280;63801;49.414;19.474;2023-03-01T06:27:23;94666.72;;;0.14;66.66
75219;BME280;63801;49.414;19.474;2023-03-01T06:29:23;94660.03;;;-0.14;66.39
75219;BME280;63801;49.414;19.474;2023-03-01T06:31:24;94666.50;;;-0.42;66.51
75219;BME280;63801;49.414;19.474;2023-03-01T06:33:24;94663.72;;;-0.67;66.73
75219;BME280;63801;49.414;19.474;2023-03-01T06:35:24;94651.16;;;-0.87;67.11
75219;BME280;63801;49.414;19.474;2023-03-01T06:37:29;94651.56;;;-1.05;67.70
75219;BME280;63801;49.414;19.474;2023-03-01T06:39:31;94658.97;;;-1.07;67.76
75219;BME280;63801;49.414;19.474;2023-03-01T06:41:32;94648.88;;;-1.10;68.11
75219;BME280;63801;49.414;19.474;2023-03-01T06:43:33;94649.53;;;-0.88;68.52
75219;BME280;63801;49.414;19.474;2023-03-01T06:45:33;94656.66;;;-0.52;68.67
75219;BME280;63801;49.414;19.474;2023-03-01T06:47:34;94649.25;;;0.13;68.83
75219;BME280;63801;49.414;19.474;2023-03-01T06:49:35;94659.69;;;0.85;68.65
75219;BME280;63801;49.414;19.474;2023-03-01T06:51:36;94656.69;;;1.57;68.18
75219;BME280;63801;49.414;19.474;2023-03-01T06:53:36;94654.03;;;2.26;67.54
75219;BME280;63801;49.414;19.474;2023-03-01T06:55:37;94642.72;;;2.89;66.96
75219;BME280;63801;49.414;19.474;2023-03-01T06:57:37;94634.44;;;3.53;66.48
75219;BME280;63801;49.414;19.474;2023-03-01T06:59:37;94640.09;;;4.18;65.93
75219;BME280;63801;49.414;19.474;2023-03-01T07:01:38;94637.09;;;4.80;65.38
75219;BME280;63801;49.414;19.474;2023-03-01T07:03:39;94637.19;;;5.40;63.83
75219;BME280;63801;49.414;19.474;2023-03-01T07:05:39;94623.09;;;5.80;62.07
75219;BME280;63801;49.414;19.474;2023-03-01T07:07:39;94627.88;;;6.24;61.73
75219;BME280;63801;49.414;19.474;2023-03-01T07:09:40;94623.53;;;6.64;61.43
75219;BME280;63801;49.414;19.474;2023-03-01T07:11:40;94627.25;;;7.13;60.13
75219;BME280;63801;49.414;19.474;2023-03-01T07:13:41;94621.69;;;7.54;60.87
75219;BME280;63801;49.414;19.474;2023-03-01T07:15:41;94628.00;;;7.89;60.66
75219;BME280;63801;49.414;19.474;2023-03-01T07:17:41;94629.22;;;8.13;58.50
75219;BME280;63801;49.414;19.474;2023-03-01T07:19:44;94634.25;;;8.54;58.67
75219;BME280;63801;49.414;19.474;2023-03-01T07:21:45;94627.97;;;8.85;57.02
75219;BME280;63801;49.414;19.474;2023-03-01T07:23:47;94627.34;;;9.22;57.71
75219;BME280;63801;49.414;19.474;2023-03-01T07:25:53;94623.59;;;9.70;57.13
75219;BME280;63801;49.414;19.474;2023-03-01T07:27:53;94618.31;;;9.99;56.05
75219;BME280;63801;49.414;19.474;2023-03-01T07:29:54;94621.97;;;10.32;54.13
75219;BME280;63801;49.414;19.474;2023-03-01T07:31:54;94615.38;;;10.51;53.89
75219;BME280;63801;49.414;19.474;2023-03-01T07:33:55;94607.59;;;10.78;53.10
75219;BME280;63801;49.414;19.474;2023-03-01T07:35:59;94611.88;;;11.00;50.71
75219;BME280;63801;49.414;19.474;2023-03-01T07:38:00;94604.81;;;11.08;49.58
75219;BME280;63801;49.414;19.474;2023-03-01T07:40:00;94601.81;;;11.09;49.86
75219;BME280;63801;49.414;19.474;2023-03-01T07:42:01;94598.25;;;11.17;50.47
75219;BME280;63801;49.414;19.474;2023-03-01T07:44:01;94589.13;;;11.43;48.99
75219;BME280;63801;49.414;19.474;2023-03-01T07:46:02;94599.97;;;11.88;49.88
75219;BME280;63801;49.414;19.474;2023-03-01T07:48:03;94605.63;;;12.19;47.90
75219;BME280;63801;49.414;19.474;2023-03-01T07:50:03;94596.41;;;12.32;45.54
75219;BME280;63801;49.414;19.474;2023-03-01T07:52:04;94604.28;;;12.49;46.19
75219;BME280;63801;49.414;19.474;2023-03-01T07:54:05;94619.47;;;12.78;46.49
75219;BME280;63801;49.414;19.474;2023-03-01T07:56:06;94617.50;;;13.03;45.94
75219;BME280;63801;49.414;19.474;2023-03-01T07:58:07;94607.53;;;13.31;45.34
75219;BME280;63801;49.414;19.474;2023-03-01T08:00:09;94610.69;;;13.61;44.82
75219;BME280;63801;49.414;19.474;2023-03-01T08:02:10;94603.13;;;13.82;44.53
75219;BME280;63801;49.414;19.474;2023-03-01T08:04:11;94599.81;;;14.05;44.08
75219;BME280;63801;49.414;19.474;2023-03-01T08:06:13;94592.41;;;14.33;43.52
75219;BME280;63801;49.414;19.474;2023-03-01T08:08:14;94588.41;;;14.43;42.48
75219;BME280;63801;49.414;19.474;2023-03-01T08:10:14;94587.88;;;14.37;42.25
75219;BME280;63801;49.414;19.474;2023-03-01T08:12:15;94579.03;;;14.24;42.18
75219;BME280;63801;49.414;19.474;2023-03-01T08:14:20;94575.78;;;14.19;41.90
75219;BME280;63801;49.414;19.474;2023-03-01T08:16:20;94580.41;;;14.18;41.06
75219;BME280;63801;49.414;19.474;2023-03-01T08:18:21;94576.66;;;14.23;40.71
75219;BME280;63801;49.414;19.474;2023-03-01T08:20:21;94583.47;;;14.32;40.71
75219;BME280;63801;49.414;19.474;2023-03-01T08:22:22;94578.41;;;14.31;40.11
75219;BME280;63801;49.414;19.474;2023-03-01T08:24:22;94578.16;;;14.36;40.37
75219;BME280;63801;49.414;19.474;2023-03-01T08:26:23;94564.06;;;14.46;40.55
75219;BME280;63801;49.414;19.474;2023-03-01T08:28:23;94563.81;;;14.51;39.23
75219;BME280;63801;49.414;19.474;2023-03-01T08:30:23;94565.28;;;14.33;38.09
75219;BME280;63801;49.414;19.474;2023-03-01T08:32:24;94571.56;;;14.21;38.18
75219;BME280;63801;49.414;19.474;2023-03-01T08:34:24;94566.50;;;13.88;37.92
75219;BME280;63801;49.414;19.474;2023-03-01T08:36:27;94574.34;;;13.62;37.93
75219;BME280;63801;49.414;19.474;2023-03-01T08:38:27;94570.75;;;13.58;38.60
75219;BME280;63801;49.414;19.474;2023-03-01T08:40:27;94568.91;;;13.62;38.79
75219;BME280;63801;49.414;19.474;2023-03-01T08:42:28;94559.50;;;13.87;39.78
75219;BME280;63801;49.414;19.474;2023-03-01T08:44:28;94554.25;;;14.26;39.84
75219;BME280;63801;49.414;19.474;2023-03-01T08:46:31;94542.50;;;14.53;38.79
75219;BME280;63801;49.414;19.474;2023-03-01T08:48:32;94554.22;;;14.92;39.28
75219;BME280;63801;49.414;19.474;2023-03-01T08:50:32;94555.47;;;15.14;38.49
75219;BME280;63801;49.414;19.474;2023-03-01T08:52:32;94546.31;;;15.41;38.24
75219;BME280;63801;49.414;19.474;2023-03-01T08:54:33;94543.72;;;15.67;38.38
75219;BME280;63801;49.414;19.474;2023-03-01T08:56:33;94539.16;;;15.94;37.82
75219;BME280;63801;49.414;19.474;2023-03-01T08:58:34;94530.09;;;16.09;38.06
75219;BME280;63801;49.414;19.474;2023-03-01T09:00:34;94535.09;;;16.30;37.17
75219;BME280;63801;49.414;19.474;2023-03-01T09:02:34;94546.75;;;16.31;37.14
75219;BME280;63801;49.414;19.474;2023-03-01T09:04:35;94530.09;;;16.32;37.00
75219;BME280;63801;49.414;19.474;2023-03-01T09:06:36;94529.66;;;16.30;36.50
75219;BME280;63801;49.414;19.474;2023-03-01T09:08:42;94526.78;;;15.97;35.27
75219;BME280;63801;49.414;19.474;2023-03-01T09:10:42;94520.84;;;15.68;35.86
75219;BME280;63801;49.414;19.474;2023-03-01T09:12:43;94517.44;;;15.33;35.43
75219;BME280;63801;49.414;19.474;2023-03-01T09:14:43;94523.34;;;15.00;35.84
75219;BME280;63801;49.414;19.474;2023-03-01T09:16:44;94520.09;;;14.56;36.21
75219;BME280;63801;49.414;19.474;2023-03-01T09:18:48;94519.53;;;14.16;36.63
75219;BME280;63801;49.414;19.474;2023-03-01T09:20:48;94515.97;;;13.80;36.72
75219;BME280;63801;49.414;19.474;2023-03-01T09:22:49;94521.53;;;13.40;36.54
75219;BME280;63801;49.414;19.474;2023-03-01T09:24:49;94526.09;;;12.96;36.80
75219;BME280;63801;49.414;19.474;2023-03-01T09:26:53;94532.34;;;12.73;37.50
75219;BME280;63801;49.414;19.474;2023-03-01T09:28:55;94524.03;;;12.53;37.64
75219;BME280;63801;49.414;19.474;2023-03-01T09:31:00;94513.81;;;12.35;37.88
75219;BME280;63801;49.414;19.474;2023-03-01T09:33:01;94528.81;;;12.32;38.04
75219;BME280;63801;49.414;19.474;2023-03-01T09:35:01;94524.88;;;12.30;38.82
75219;BME280;63801;49.414;19.474;2023-03-01T09:37:04;94532.06;;;12.38;38.93
75219;BME280;63801;49.414;19.474;2023-03-01T09:39:05;94532.19;;;12.41;38.83
75219;BME280;63801;49.414;19.474;2023-03-01T09:44:08;94531.03;;;12.54;39.72
75219;BME280;63801;49.414;19.474;2023-03-01T09:46:13;94526.31;;;12.51;39.74
75219;BME280;63801;49.414;19.474;2023-03-01T09:48:19;94523.03;;;12.46;39.92
75219;BME280;63801;49.414;19.474;2023-03-01T09:50:22;94521.25;;;12.38;39.95
75219;BME280;63801;49.414;19.474;2023-03-01T09:52:36;94527.44;;;12.26;39.94
75219;BME280;63801;49.414;19.474;2023-03-01T09:54:38;94524.63;;;12.23;40.33
75219;BME280;63801;49.414;19.474;2023-03-01T10:02:08;94534.09;;;11.80;40.39
75219;BME280;63801;49.414;19.474;2023-03-01T10:04:38;94527.50;;;11.69;40.45
75219;BME280;63801;49.414;19.474;2023-03-01T10:06:45;94530.06;;;11.41;40.58
75219;BME280;63801;49.414;19.474;2023-03-01T10:08:58;94535.19;;;11.22;40.83
75219;BME280;63801;49.414;19.474;2023-03-01T10:11:00;94527.84;;;11.10;40.32
75219;BME280;63801;49.414;19.474;2023-03-01T10:13:33;94517.25;;;10.85;40.02
75219;BME280;63801;49.414;19.474;2023-03-01T10:15:44;94517.56;;;10.71;40.55
75219;BME280;63801;49.414;19.474;2023-03-01T10:17:57;94514.50;;;10.72;40.95
75219;BME280;63801;49.414;19.474;2023-03-01T10:20:15;94507.03;;;10.78;40.95
75219;BME280;63801;49.414;19.474;2023-03-01T10:22:27;94509.59;;;10.74;41.03
75219;BME280;63801;49.414;19.474;2023-03-01T10:24:34;94510.72;;;10.73;41.17
75219;BME280;63801;49.414;19.474;2023-03-01T10:29:04;94507.59;;;10.63;41.02
75219;BME280;63801;49.414;19.474;2023-03-01T10:31:05;94511.44;;;10.62;41.25
75219;BME280;63801;49.414;19.474;2023-03-01T10:33:23;94492.25;;;10.43;40.87
75219;BME280;63801;49.414;19.474;2023-03-01T10:35:29;94505.03;;;10.46;41.52
75219;BME280;63801;49.414;19.474;2023-03-01T10:37:32;94495.66;;;10.52;41.46
75219;BME280;63801;49.414;19.474;2023-03-01T10:39:32;94493.56;;;10.57;41.27
75219;BME280;63801;49.414;19.474;2023-03-01T10:41:33;94490.50;;;10.59;41.54
75219;BME280;63801;49.414;19.474;2023-03-01T10:43:59;94496.81;;;10.63;41.06
75219;BME280;63801;49.414;19.474;2023-03-01T10:46:00;94491.84;;;10.53;41.03
75219;BME280;63801;49.414;19.474;2023-03-01T10:48:18;94486.31;;;10.49;41.03
75219;BME280;63801;49.414;19.474;2023-03-01T10:50:21;94482.84;;;10.49;41.33
75219;BME280;63801;49.414;19.474;2023-03-01T10:52:26;94483.97;;;10.48;41.31
75219;BME280;63801;49.414;19.474;2023-03-01T10:54:32;94490.59;;;10.29;40.82
75219;BME280;63801;49.414;19.474;2023-03-01T10:56:46;94484.53;;;9.74;40.56
75219;BME280;63801;49.414;19.474;2023-03-01T10:59:04;94487.63;;;9.17;41.27
75219;BME280;63801;49.414;19.474;2023-03-01T11:01:09;94479.16;;;8.89;41.80
75219;BME280;63801;49.414;19.474;2023-03-01T11:03:35;94484.38;;;8.69;42.33